sensor_id;sensor_type;location;lat;lon;timestamp;temperature;humidity
32187;DHT22;18686;53.084;8.872;2023-02-22T00:02:08;10.00;99.90
32187;DHT22;18686;53.084;8.872;2023-02-22T00:04:51;10.00;99.90
32187;DHT22;18686;53.084;8.872;2023-02-22T00:07:21;10.00;99.90
32187;DHT22;18686;53.084;8.872;2023-02-22T00:09:50;10.00;99.90
32187;DHT22;18686;53.084;8.872;2023-02-22T00:12:18;10.00;99.90
32187;DHT22;18686;53.084;8.872;2023-02-22T00:14:47;10.00;99.90
32187;DHT22;18686;53.084;8.872;2023-02-22T00:17:17;10.00;99.90
32187;DHT22;18686;53.084;8.872;2023-02-22T00:19:47;10.00;99.90
32187;DHT22;18686;53.084;8.872;2023-02-22T00:22:15;10.00;99.90
32187;DHT22;18686;53.084;8.872;2023-02-22T00:24:46;10.00;99.90
32187;DHT22;18686;53.084;8.872;2023-02-22T00:27:14;10.00;99.90
32187;DHT22;18686;53.084;8.872;2023-02-22T00:29:44;10.00;99.90
32187;DHT22;18686;53.084;8.872;2023-02-22T00:32:12;10.00;99.90
32187;DHT22;18686;53.084;8.872;2023-02-22T00:34:41;9.90;99.90
32187;DHT22;18686;53.084;8.872;2023-02-22T00:37:10;9.90;99.90
32187;DHT22;18686;53.084;8.872;2023-02-22T00:39:38;9.80;99.90
32187;DHT22;18686;53.084;8.872;2023-02-22T00:42:08;9.80;99.90
32187;DHT22;18686;53.084;8.872;2023-02-22T00:44:36;9.80;99.90
32187;DHT22;18686;53.084;8.872;2023-02-22T00:47:04;9.80;99.90
32187;DHT22;18686;53.084;8.872;2023-02-22T00:49:32;9.70;99.90
32187;DHT22;18686;53.084;8.872;2023-02-22T00:52:01;9.70;99.90
32187;DHT22;18686;53.084;8.872;2023-02-22T00:54:30;9.70;99.90
32187;DHT22;18686;53.084;8.872;2023-02-22T00:56:58;9.70;99.90
32187;DHT22;18686;53.084;8.872;2023-02-22T00:59:28;9.70;99.90
32187;DHT22;18686;53.084;8.872;2023-02-22T01:01:57;9.70;99.90
32187;DHT22;18686;53.084;8.872;2023-02-22T01:04:25;9.60;99.90
32187;DHT22;18686;53.084;8.872;2023-02-22T01:06:53;9.70;99.90
32187;DHT22;18686;53.084;8.872;2023-02-22T01:09:26;9.70;99.90
32187;DHT22;18686;53.084;8.872;2023-02-22T01:11:54;9.70;99.90
32187;DHT22;18686;53.084;8.872;2023-02-22T01:14:24;9.60;99.90
32187;DHT22;18686;53.084;8.872;2023-02-22T01:16:54;9.60;99.90
32187;DHT22;18686;53.084;8.872;2023-02-22T01:19:23;9.60;99.90
32187;DHT22;18686;53.084;8.872;2023-02-22T01:21:51;9.60;99.90
32187;DHT22;18686;53.084;8.872;2023-02-22T01:24:20;9.60;99.90
32187;DHT22;18686;53.084;8.872;2023-02-22T01:26:50;9.60;99.90
32187;DHT22;18686;53.084;8.872;2023-02-22T01:29:19;9.60;99.90
32187;DHT22;18686;53.084;8.872;2023-02-22T01:31:52;9.60;99.90
32187;DHT22;18686;53.084;8.872;2023-02-22T01:34:23;9.60;99.90
32187;DHT22;18686;53.084;8.872;2023-02-22T01:36:52;9.60;99.90
32187;DHT22;18686;53.084;8.872;2023-02-22T01:39:20;9.50;99.90
32187;DHT22;18686;53.084;8.872;2023-02-22T01:41:48;9.50;99.90
32187;DHT22;18686;53.084;8.872;2023-02-22T01:44:26;9.50;99.90
32187;DHT22;18686;53.084;8.872;2023-02-22T01:46:59;9.50;99.90
32187;DHT22;18686;53.084;8.872;2023-02-22T01:49:34;9.50;99.90
32187;DHT22;18686;53.084;8.872;2023-02-22T01:52:06;9.50;99.90
32187;DHT22;18686;53.084;8.872;2023-02-22T01:54:38;9.50;99.90
32187;DHT22;18686;53.084;8.872;2023-02-22T01:57:10;9.40;99.90
32187;DHT22;18686;53.084;8.872;2023-02-22T01:59:43;9.40;99.90
32187;DHT22;18686;53.084;8.872;2023-02-22T02:02:12;9.30;99.90
32187;DHT22;18686;53.084;8.872;2023-02-22T02:04:42;9.30;99.90
32187;DHT22;18686;53.084;8.872;2023-02-22T02:07:12;9.30;99.90
32187;DHT22;18686;53.084;8.872;2023-02-22T02:09:46;9.30;99.90
32187;DHT22;18686;53.084;8.872;2023-02-22T02:12:20;9.30;99.90
32187;DHT22;18686;53.084;8.872;2023-02-22T02:14:50;9.30;99.90
32187;DHT22;18686;53.084;8.872;2023-02-22T02:17:20;9.20;99.90
32187;DHT22;18686;53.084;8.872;2023-02-22T02:19:58;9.30;99.90
32187;DHT22;18686;53.084;8.872;2023-02-22T02:22:40;9.30;99.90
32187;DHT22;18686;53.084;8.872;2023-02-22T02:28:56;9.30;99.90
32187;DHT22;18686;53.084;8.872;2023-02-22T02:34:49;9.30;99.90
32187;DHT22;18686;53.084;8.872;2023-02-22T02:37:30;9.20;99.90
32187;DHT22;18686;53.084;8.872;2023-02-22T02:40:08;9.20;99.90
32187;DHT22;18686;53.084;8.872;2023-02-22T02:42:41;9.20;99.90
32187;DHT22;18686;53.084;8.872;2023-02-22T02:45:16;9.10;99.90
32187;DHT22;18686;53.084;8.872;2023-02-22T02:47:50;9.10;99.90
32187;DHT22;18686;53.084;8.872;2023-02-22T02:50:24;9.10;99.90
32187;DHT22;18686;53.084;8.872;2023-02-22T02:52:55;9.10;99.90
32187;DHT22;18686;53.084;8.872;2023-02-22T02:55:27;9.10;99.90
32187;DHT22;18686;53.084;8.872;2023-02-22T02:57:56;9.20;99.90
32187;DHT22;18686;53.084;8.872;2023-02-22T03:00:31;9.20;99.90
32187;DHT22;18686;53.084;8.872;2023-02-22T03:03:15;9.20;99.90
32187;DHT22;18686;53.084;8.872;2023-02-22T03:06:01;9.20;99.90
32187;DHT22;18686;53.084;8.872;2023-02-22T03:08:41;9.20;99.90
32187;DHT22;18686;53.084;8.872;2023-02-22T03:11:14;9.20;99.90
32187;DHT22;18686;53.084;8.872;2023-02-22T03:13:51;9.20;99.90
32187;DHT22;18686;53.084;8.872;2023-02-22T03:16:31;9.20;99.90
32187;DHT22;18686;53.084;8.872;2023-02-22T03:19:05;9.20;99.90
32187;DHT22;18686;53.084;8.872;2023-02-22T03:21:43;9.20;99.90
32187;DHT22;18686;53.084;8.872;2023-02-22T03:24:18;9.20;99.90
32187;DHT22;18686;53.084;8.872;2023-02-22T03:26:52;9.20;99.90
32187;DHT22;18686;53.084;8.872;2023-02-22T03:29:25;9.20;99.90
32187;DHT22;18686;53.084;8.872;2023-02-22T03:31:57;9.10;99.90
32187;DHT22;18686;53.084;8.872;2023-02-22T03:34:34;9.10;99.90
32187;DHT22;18686;53.084;8.872;2023-02-22T03:37:12;9.10;99.90
32187;DHT22;18686;53.084;8.872;2023-02-22T03:39:45;9.10;99.90
32187;DHT22;18686;53.084;8.872;2023-02-22T03:42:17;9.10;99.90
32187;DHT22;18686;53.084;8.872;2023-02-22T03:44:50;9.20;99.90
32187;DHT22;18686;53.084;8.872;2023-02-22T03:47:23;9.10;99.90
32187;DHT22;18686;53.084;8.872;2023-02-22T03:49:58;9.10;99.90
32187;DHT22;18686;53.084;8.872;2023-02-22T03:52:29;9.10;99.90
32187;DHT22;18686;53.084;8.872;2023-02-22T03:54:57;9.10;99.90
32187;DHT22;18686;53.084;8.872;2023-02-22T03:57:28;9.10;99.90
32187;DHT22;18686;53.084;8.872;2023-02-22T04:00:04;9.10;99.90
32187;DHT22;18686;53.084;8.872;2023-02-22T04:02:39;9.10;99.90
32187;DHT22;18686;53.084;8.872;2023-02-22T04:05:11;9.00;99.90
32187;DHT22;18686;53.084;8.872;2023-02-22T04:07:42;9.00;99.90
32187;DHT22;18686;53.084;8.872;2023-02-22T04:10:14;8.90;99.90
32187;DHT22;18686;53.084;8.872;2023-02-22T04:12:42;8.80;99.90
32187;DHT22;18686;53.084;8.872;2023-02-22T04:15:15;8.70;99.90
32187;DHT22;18686;53.084;8.872;2023-02-22T04:17:44;8.60;99.90
32187;DHT22;18686;53.084;8.872;2023-02-22T04:20:13;8.50;99.90
32187;DHT22;18686;53.084;8.872;2023-02-22T04:23:05;8.40;99.90
32187;DHT22;18686;53.084;8.872;2023-02-22T04:25:36;8.30;99.90
32187;DHT22;18686;53.084;8.872;2023-02-22T04:28:10;8.20;99.90
32187;DHT22;18686;53.084;8.872;2023-02-22T04:30:51;8.00;99.90
32187;DHT22;18686;53.084;8.872;2023-02-22T04:33:20;7.90;99.90
32187;DHT22;18686;53.084;8.872;2023-02-22T04:35:49;7.80;99.90
32187;DHT22;18686;53.084;8.872;2023-02-22T04:38:19;7.70;99.90
32187;DHT22;18686;53.084;8.872;2023-02-22T04:40:47;7.60;99.90
32187;DHT22;18686;53.084;8.872;2023-02-22T04:43:15;7.50;99.90
32187;DHT22;18686;53.084;8.872;2023-02-22T04:45:43;7.40;99.90
32187;DHT22;18686;53.084;8.872;2023-02-22T04:48:12;7.30;99.90
32187;DHT22;18686;53.084;8.872;2023-02-22T04:50:40;7.20;99.90
32187;DHT22;18686;53.084;8.872;2023-02-22T04:53:08;7.10;99.90
32187;DHT22;18686;53.084;8.872;2023-02-22T04:55:39;7.00;99.90
32187;DHT22;18686;53.084;8.872;2023-02-22T04:58:07;6.90;99.90
32187;DHT22;18686;53.084;8.872;2023-02-22T05:00:36;6.90;99.90
32187;DHT22;18686;53.084;8.872;2023-02-22T05:03:06;6.80;99.90
32187;DHT22;18686;53.084;8.872;2023-02-22T05:05:34;6.80;99.90
32187;DHT22;18686;53.084;8.872;2023-02-22T05:08:03;6.70;99.90
32187;DHT22;18686;53.084;8.872;2023-02-22T05:10:31;6.70;99.90
32187;DHT22;18686;53.084;8.872;2023-02-22T05:13:01;6.70;99.90
32187;DHT22;18686;53.084;8.872;2023-02-22T05:15:30;6.70;99.90
32187;DHT22;18686;53.084;8.872;2023-02-22T05:17:58;6.80;99.90
32187;DHT22;18686;53.084;8.872;2023-02-22T05:20:30;6.80;99.90
32187;DHT22;18686;53.084;8.872;2023-02-22T05:23:00;6.80;99.90
32187;DHT22;18686;53.084;8.872;2023-02-22T05:25:30;6.80;99.90
32187;DHT22;18686;53.084;8.872;2023-02-22T05:28:01;6.80;99.90
32187;DHT22;18686;53.084;8.872;2023-02-22T05:30:33;6.80;99.90
32187;DHT22;18686;53.084;8.872;2023-02-22T05:33:02;6.90;99.90
32187;DHT22;18686;53.084;8.872;2023-02-22T05:35:30;6.90;99.90
32187;DHT22;18686;53.084;8.872;2023-02-22T05:37:58;6.90;99.90
32187;DHT22;18686;53.084;8.872;2023-02-22T05:40:29;7.00;99.90
32187;DHT22;18686;53.084;8.872;2023-02-22T05:42:58;7.10;99.90
32187;DHT22;18686;53.084;8.872;2023-02-22T05:45:29;7.20;99.90
32187;DHT22;18686;53.084;8.872;2023-02-22T05:47:57;7.20;99.90
32187;DHT22;18686;53.084;8.872;2023-02-22T05:50:26;7.20;99.90
32187;DHT22;18686;53.084;8.872;2023-02-22T05:52:54;7.20;99.90
32187;DHT22;18686;53.084;8.872;2023-02-22T05:55:23;7.10;99.90
32187;DHT22;18686;53.084;8.872;2023-02-22T05:57:52;7.10;99.90
32187;DHT22;18686;53.084;8.872;2023-02-22T06:00:22;7.00;99.90
32187;DHT22;18686;53.084;8.872;2023-02-22T06:02:57;7.00;99.90
32187;DHT22;18686;53.084;8.872;2023-02-22T06:05:26;6.90;99.90
32187;DHT22;18686;53.084;8.872;2023-02-22T06:07:55;6.90;99.90
32187;DHT22;18686;53.084;8.872;2023-02-22T06:10:24;6.90;99.90
32187;DHT22;18686;53.084;8.872;2023-02-22T06:12:53;6.80;99.90
32187;DHT22;18686;53.084;8.872;2023-02-22T06:15:23;6.80;99.90
32187;DHT22;18686;53.084;8.872;2023-02-22T06:17:52;6.80;99.90
32187;DHT22;18686;53.084;8.872;2023-02-22T06:20:25;6.70;99.90
32187;DHT22;18686;53.084;8.872;2023-02-22T06:22:55;6.60;99.90
32187;DHT22;18686;53.084;8.872;2023-02-22T06:25:25;6.60;99.90
32187;DHT22;18686;53.084;8.872;2023-02-22T06:27:53;6.50;99.90
32187;DHT22;18686;53.084;8.872;2023-02-22T06:30:23;6.60;99.90
32187;DHT22;18686;53.084;8.872;2023-02-22T06:32:52;6.60;99.90
32187;DHT22;18686;53.084;8.872;2023-02-22T06:35:22;6.60;99.90
32187;DHT22;18686;53.084;8.872;2023-02-22T06:37:50;6.60;99.90
32187;DHT22;18686;53.084;8.872;2023-02-22T06:40:18;6.60;99.90
32187;DHT22;18686;53.084;8.872;2023-02-22T06:42:47;6.80;99.90
32187;DHT22;18686;53.084;8.872;2023-02-22T06:45:16;6.90;99.90
32187;DHT22;18686;53.084;8.872;2023-02-22T06:47:45;7.00;99.90
32187;DHT22;18686;53.084;8.872;2023-02-22T06:50:21;7.20;99.90
32187;DHT22;18686;53.084;8.872;2023-02-22T06:52:51;7.30;99.90
32187;DHT22;18686;53.084;8.872;2023-02-22T06:55:22;7.40;99.90
32187;DHT22;18686;53.084;8.872;2023-02-22T06:57:50;7.50;99.90
32187;DHT22;18686;53.084;8.872;2023-02-22T07:00:21;7.50;99.90
32187;DHT22;18686;53.084;8.872;2023-02-22T07:02:51;7.60;99.90
32187;DHT22;18686;53.084;8.872;2023-02-22T07:05:20;7.70;99.90
32187;DHT22;18686;53.084;8.872;2023-02-22T07:08:00;7.80;99.90
32187;DHT22;18686;53.084;8.872;2023-02-22T07:10:30;7.90;99.90
32187;DHT22;18686;53.084;8.872;2023-02-22T07:12:59;8.10;99.90
32187;DHT22;18686;53.084;8.872;2023-02-22T07:15:29;8.30;99.90
32187;DHT22;18686;53.084;8.872;2023-02-22T07:17:59;8.50;99.90
32187;DHT22;18686;53.084;8.872;2023-02-22T07:20:29;8.60;99.90
32187;DHT22;18686;53.084;8.872;2023-02-22T07:22:59;8.80;99.90
32187;DHT22;18686;53.084;8.872;2023-02-22T07:25:28;9.00;99.90
32187;DHT22;18686;53.084;8.872;2023-02-22T07:27:56;9.40;99.90
32187;DHT22;18686;53.084;8.872;2023-02-22T07:30:27;9.60;99.90
32187;DHT22;18686;53.084;8.872;2023-02-22T07:32:58;9.80;99.90
32187;DHT22;18686;53.084;8.872;2023-02-22T07:35:28;10.00;99.90
32187;DHT22;18686;53.084;8.872;2023-02-22T07:37:59;10.30;99.90
32187;DHT22;18686;53.084;8.872;2023-02-22T07:40:27;10.40;99.90
32187;DHT22;18686;53.084;8.872;2023-02-22T07:42:57;10.50;99.90
32187;DHT22;18686;53.084;8.872;2023-02-22T07:45:29;10.40;99.90
32187;DHT22;18686;53.084;8.872;2023-02-22T07:47:58;10.30;99.90
32187;DHT22;18686;53.084;8.872;2023-02-22T07:50:28;10.30;99.90
32187;DHT22;18686;53.084;8.872;2023-02-22T07:53:00;10.40;99.90
32187;DHT22;18686;53.084;8.872;2023-02-22T07:55:31;10.40;99.90
32187;DHT22;18686;53.084;8.872;2023-02-22T07:58:01;10.60;99.90
32187;DHT22;18686;53.084;8.872;2023-02-22T08:00:31;10.80;99.90
32187;DHT22;18686;53.084;8.872;2023-02-22T08:03:02;11.00;99.90
32187;DHT22;18686;53.084;8.872;2023-02-22T08:05:31;11.10;99.90
32187;DHT22;18686;53.084;8.872;2023-02-22T08:08:02;11.10;99.90
32187;DHT22;18686;53.084;8.872;2023-02-22T08:10:32;11.10;99.90
32187;DHT22;18686;53.084;8.872;2023-02-22T08:13:01;11.10;99.90
32187;DHT22;18686;53.084;8.872;2023-02-22T08:15:31;11.00;99.90
32187;DHT22;18686;53.084;8.872;2023-02-22T08:18:02;10.90;99.90
32187;DHT22;18686;53.084;8.872;2023-02-22T08:20:31;10.70;99.90
32187;DHT22;18686;53.084;8.872;2023-02-22T08:23:00;10.70;99.90
32187;DHT22;18686;53.084;8.872;2023-02-22T08:25:29;10.80;99.90
32187;DHT22;18686;53.084;8.872;2023-02-22T08:27:59;11.00;99.90
32187;DHT22;18686;53.084;8.872;2023-02-22T08:30:29;11.10;99.90
32187;DHT22;18686;53.084;8.872;2023-02-22T08:32:58;11.50;99.90
32187;DHT22;18686;53.084;8.872;2023-02-22T08:35:29;11.80;99.90
32187;DHT22;18686;53.084;8.872;2023-02-22T08:38:00;11.70;99.90
32187;DHT22;18686;53.084;8.872;2023-02-22T08:40:31;11.50;99.90
32187;DHT22;18686;53.084;8.872;2023-02-22T08:42:59;11.30;99.90
32187;DHT22;18686;53.084;8.872;2023-02-22T08:45:28;11.40;99.90
32187;DHT22;18686;53.084;8.872;2023-02-22T08:47:58;11.30;99.90
32187;DHT22;18686;53.084;8.872;2023-02-22T08:50:28;11.40;99.90
32187;DHT22;18686;53.084;8.872;2023-02-22T08:52:58;11.70;99.90
32187;DHT22;18686;53.084;8.872;2023-02-22T08:55:29;11.80;99.90
32187;DHT22;18686;53.084;8.872;2023-02-22T08:57:58;12.20;99.90
32187;DHT22;18686;53.084;8.872;2023-02-22T09:00:28;12.20;99.90
32187;DHT22;18686;53.084;8.872;2023-02-22T09:02:59;12.20;99.90
32187;DHT22;18686;53.084;8.872;2023-02-22T09:05:28;12.10;99.90
32187;DHT22;18686;53.084;8.872;2023-02-22T09:07:58;12.50;99.90
32187;DHT22;18686;53.084;8.872;2023-02-22T09:10:29;12.80;99.90
32187;DHT22;18686;53.084;8.872;2023-02-22T09:12:58;13.30;99.90
32187;DHT22;18686;53.084;8.872;2023-02-22T09:15:27;13.50;99.90
32187;DHT22;18686;53.084;8.872;2023-02-22T09:17:56;13.60;99.90
32187;DHT22;18686;53.084;8.872;2023-02-22T09:20:26;13.70;99.90
32187;DHT22;18686;53.084;8.872;2023-02-22T09:22:55;13.90;99.90
32187;DHT22;18686;53.084;8.872;2023-02-22T09:25:23;14.30;99.90
32187;DHT22;18686;53.084;8.872;2023-02-22T09:27:55;14.60;99.90
32187;DHT22;18686;53.084;8.872;2023-02-22T09:30:25;15.20;99.30
32187;DHT22;18686;53.084;8.872;2023-02-22T09:33:00;15.40;96.70
32187;DHT22;18686;53.084;8.872;2023-02-22T09:35:29;15.20;96.50
32187;DHT22;18686;53.084;8.872;2023-02-22T09:38:03;15.10;96.50
32187;DHT22;18686;53.084;8.872;2023-02-22T09:40:33;15.50;96.10
32187;DHT22;18686;53.084;8.872;2023-02-22T09:43:26;16.70;94.40
32187;DHT22;18686;53.084;8.872;2023-02-22T09:46:06;17.40;91.00
32187;DHT22;18686;53.084;8.872;2023-02-22T09:48:44;18.30;83.80
32187;DHT22;18686;53.084;8.872;2023-02-22T09:51:16;18.90;82.40
32187;DHT22;18686;53.084;8.872;2023-02-22T09:53:49;20.30;74.50
32187;DHT22;18686;53.084;8.872;2023-02-22T09:56:19;21.30;67.30
32187;DHT22;18686;53.084;8.872;2023-02-22T09:58:51;22.00;61.50
32187;DHT22;18686;53.084;8.872;2023-02-22T10:01:25;22.50;57.50
32187;DHT22;18686;53.084;8.872;2023-02-22T10:03:59;22.90;56.30
32187;DHT22;18686;53.084;8.872;2023-02-22T10:06:29;23.40;55.70
32187;DHT22;18686;53.084;8.872;2023-02-22T10:09:00;24.70;52.90
32187;DHT22;18686;53.084;8.872;2023-02-22T10:11:43;25.60;48.80
32187;DHT22;18686;53.084;8.872;2023-02-22T10:14:30;25.80;47.80
32187;DHT22;18686;53.084;8.872;2023-02-22T10:17:05;25.60;46.40
32187;DHT22;18686;53.084;8.872;2023-02-22T10:19:44;24.60;46.80
32187;DHT22;18686;53.084;8.872;2023-02-22T10:22:33;23.10;49.70
32187;DHT22;18686;53.084;8.872;2023-02-22T10:25:07;22.30;52.30
32187;DHT22;18686;53.084;8.872;2023-02-22T10:27:41;22.90;52.00
32187;DHT22;18686;53.084;8.872;2023-02-22T10:30:19;23.10;49.50
32187;DHT22;18686;53.084;8.872;2023-02-22T10:32:57;23.10;49.90
32187;DHT22;18686;53.084;8.872;2023-02-22T10:35:29;22.50;50.80
32187;DHT22;18686;53.084;8.872;2023-02-22T10:38:10;21.70;51.80
32187;DHT22;18686;53.084;8.872;2023-02-22T10:40:45;20.80;54.30
32187;DHT22;18686;53.084;8.872;2023-02-22T10:43:15;20.30;56.20
32187;DHT22;18686;53.084;8.872;2023-02-22T10:45:44;20.50;56.60
32187;DHT22;18686;53.084;8.872;2023-02-22T10:48:15;21.70;54.80
32187;DHT22;18686;53.084;8.872;2023-02-22T10:50:45;22.70;51.70
32187;DHT22;18686;53.084;8.872;2023-02-22T10:53:14;22.90;50.50
32187;DHT22;18686;53.084;8.872;2023-02-22T10:56:04;23.70;50.60
32187;DHT22;18686;53.084;8.872;2023-02-22T10:58:49;24.10;47.90
32187;DHT22;18686;53.084;8.872;2023-02-22T11:01:26;23.60;49.30
32187;DHT22;18686;53.084;8.872;2023-02-22T11:04:05;23.80;48.90
32187;DHT22;18686;53.084;8.872;2023-02-22T11:06:37;23.30;48.90
32187;DHT22;18686;53.084;8.872;2023-02-22T11:09:09;23.20;49.20
32187;DHT22;18686;53.084;8.872;2023-02-22T11:11:40;23.60;49.60
32187;DHT22;18686;53.084;8.872;2023-02-22T11:14:10;24.20;48.30
32187;DHT22;18686;53.084;8.872;2023-02-22T11:16:43;24.30;46.90
32187;DHT22;18686;53.084;8.872;2023-02-22T11:19:20;23.70;47.70
32187;DHT22;18686;53.084;8.872;2023-02-22T11:21:52;24.20;48.10
32187;DHT22;18686;53.084;8.872;2023-02-22T11:24:22;25.50;46.90
32187;DHT22;18686;53.084;8.872;2023-02-22T11:27:00;26.30;45.60
32187;DHT22;18686;53.084;8.872;2023-02-22T11:29:31;26.40;44.50
32187;DHT22;18686;53.084;8.872;2023-02-22T11:32:02;26.40;43.20
32187;DHT22;18686;53.084;8.872;2023-02-22T11:34:34;25.90;44.20
32187;DHT22;18686;53.084;8.872;2023-02-22T11:37:26;25.50;45.10
32187;DHT22;18686;53.084;8.872;2023-02-22T11:40:12;25.30;45.20
32187;DHT22;18686;53.084;8.872;2023-02-22T11:42:44;25.20;46.00
32187;DHT22;18686;53.084;8.872;2023-02-22T11:45:15;24.50;46.20
32187;DHT22;18686;53.084;8.872;2023-02-22T11:47:53;24.00;47.40
32187;DHT22;18686;53.084;8.872;2023-02-22T11:50:27;24.40;47.70
32187;DHT22;18686;53.084;8.872;2023-02-22T11:53:20;24.40;47.30
32187;DHT22;18686;53.084;8.872;2023-02-22T11:56:12;24.80;46.00
32187;DHT22;18686;53.084;8.872;2023-02-22T11:58:47;23.20;48.10
32187;DHT22;18686;53.084;8.872;2023-02-22T12:01:22;22.00;50.50
32187;DHT22;18686;53.084;8.872;2023-02-22T12:04:16;21.00;53.20
32187;DHT22;18686;53.084;8.872;2023-02-22T12:07:00;20.60;54.50
32187;DHT22;18686;53.084;8.872;2023-02-22T12:09:35;20.00;56.50
32187;DHT22;18686;53.084;8.872;2023-02-22T12:12:13;20.30;56.80
32187;DHT22;18686;53.084;8.872;2023-02-22T12:14:50;20.70;55.60
32187;DHT22;18686;53.084;8.872;2023-02-22T12:17:30;20.90;55.00
32187;DHT22;18686;53.084;8.872;2023-02-22T12:20:04;21.30;54.10
32187;DHT22;18686;53.084;8.872;2023-02-22T12:22:38;21.60;53.80
32187;DHT22;18686;53.084;8.872;2023-02-22T12:25:18;21.50;53.10
32187;DHT22;18686;53.084;8.872;2023-02-22T12:27:52;21.00;54.60
32187;DHT22;18686;53.084;8.872;2023-02-22T12:30:23;20.40;55.70
32187;DHT22;18686;53.084;8.872;2023-02-22T12:32:57;20.50;56.40
32187;DHT22;18686;53.084;8.872;2023-02-22T12:35:31;20.30;57.40
32187;DHT22;18686;53.084;8.872;2023-02-22T12:38:05;20.10;56.80
32187;DHT22;18686;53.084;8.872;2023-02-22T12:40:42;19.60;57.70
32187;DHT22;18686;53.084;8.872;2023-02-22T12:43:17;19.10;59.30
32187;DHT22;18686;53.084;8.872;2023-02-22T12:45:51;18.30;61.60
32187;DHT22;18686;53.084;8.872;2023-02-22T12:48:29;18.10;62.80
32187;DHT22;18686;53.084;8.872;2023-02-22T12:51:05;17.80;63.70
32187;DHT22;18686;53.084;8.872;2023-02-22T12:53:40;17.90;64.30
32187;DHT22;18686;53.084;8.872;2023-02-22T12:56:17;17.90;64.80
32187;DHT22;18686;53.084;8.872;2023-02-22T12:58:53;17.80;65.30
32187;DHT22;18686;53.084;8.872;2023-02-22T13:01:24;17.70;65.60
32187;DHT22;18686;53.084;8.872;2023-02-22T13:03:56;17.50;66.70
32187;DHT22;18686;53.084;8.872;2023-02-22T13:06:41;17.30;67.90
32187;DHT22;18686;53.084;8.872;2023-02-22T13:12:08;17.00;69.50
32187;DHT22;18686;53.084;8.872;2023-02-22T13:14:49;17.00;70.20
32187;DHT22;18686;53.084;8.872;2023-02-22T13:17:23;17.10;70.70
32187;DHT22;18686;53.084;8.872;2023-02-22T13:19:57;17.30;70.00
32187;DHT22;18686;53.084;8.872;2023-02-22T13:22:34;17.50;69.70
32187;DHT22;18686;53.084;8.872;2023-02-22T13:25:09;17.30;69.90
32187;DHT22;18686;53.084;8.872;2023-02-22T13:27:44;17.10;71.10
32187;DHT22;18686;53.084;8.872;2023-02-22T13:30:18;17.30;71.60
32187;DHT22;18686;53.084;8.872;2023-02-22T13:32:54;17.20;70.70
32187;DHT22;18686;53.084;8.872;2023-02-22T13:35:33;17.20;71.50
32187;DHT22;18686;53.084;8.872;2023-02-22T13:38:30;17.00;72.20
32187;DHT22;18686;53.084;8.872;2023-02-22T13:44:10;16.60;74.30
32187;DHT22;18686;53.084;8.872;2023-02-22T13:47:16;16.40;76.00
32187;DHT22;18686;53.084;8.872;2023-02-22T13:50:16;16.30;77.60
32187;DHT22;18686;53.084;8.872;2023-02-22T13:52:49;16.20;78.40
32187;DHT22;18686;53.084;8.872;2023-02-22T13:55:24;16.00;79.20
32187;DHT22;18686;53.084;8.872;2023-02-22T13:58:00;15.90;80.50
32187;DHT22;18686;53.084;8.872;2023-02-22T14:03:36;15.70;82.40
32187;DHT22;18686;53.084;8.872;2023-02-22T14:06:08;15.40;85.70
32187;DHT22;18686;53.084;8.872;2023-02-22T14:08:41;15.20;87.60
32187;DHT22;18686;53.084;8.872;2023-02-22T14:11:40;15.20;88.90
32187;DHT22;18686;53.084;8.872;2023-02-22T14:14:12;15.20;89.90
32187;DHT22;18686;53.084;8.872;2023-02-22T14:16:40;14.90;90.90
32187;DHT22;18686;53.084;8.872;2023-02-22T14:19:17;14.70;91.90
32187;DHT22;18686;53.084;8.872;2023-02-22T14:21:57;14.60;93.40
32187;DHT22;18686;53.084;8.872;2023-02-22T14:24:28;14.50;94.10
32187;DHT22;18686;53.084;8.872;2023-02-22T14:27:02;14.30;94.90
32187;DHT22;18686;53.084;8.872;2023-02-22T14:29:31;14.40;95.30
32187;DHT22;18686;53.084;8.872;2023-02-22T14:32:04;14.40;95.50
32187;DHT22;18686;53.084;8.872;2023-02-22T14:34:40;14.50;95.40
32187;DHT22;18686;53.084;8.872;2023-02-22T14:37:15;14.30;96.10
32187;DHT22;18686;53.084;8.872;2023-02-22T14:39:46;14.20;96.60
32187;DHT22;18686;53.084;8.872;2023-02-22T14:42:22;14.20;96.90
32187;DHT22;18686;53.084;8.872;2023-02-22T14:44:56;14.00;97.90
32187;DHT22;18686;53.084;8.872;2023-02-22T14:47:30;14.10;98.00
32187;DHT22;18686;53.084;8.872;2023-02-22T14:50:04;14.30;97.70
32187;DHT22;18686;53.084;8.872;2023-02-22T14:52:36;14.50;97.30
32187;DHT22;18686;53.084;8.872;2023-02-22T14:55:17;14.50;97.10
32187;DHT22;18686;53.084;8.872;2023-02-22T14:57:59;14.40;97.30
32187;DHT22;18686;53.084;8.872;2023-02-22T15:00:37;14.30;97.70
32187;DHT22;18686;53.084;8.872;2023-02-22T15:03:16;14.40;97.70
32187;DHT22;18686;53.084;8.872;2023-02-22T15:05:44;14.50;97.40
32187;DHT22;18686;53.084;8.872;2023-02-22T15:08:15;14.50;97.60
32187;DHT22;18686;53.084;8.872;2023-02-22T15:10:45;14.40;97.60
32187;DHT22;18686;53.084;8.872;2023-02-22T15:13:18;14.50;97.70
32187;DHT22;18686;53.084;8.872;2023-02-22T15:15:48;14.50;97.80
32187;DHT22;18686;53.084;8.872;2023-02-22T15:18:23;14.40;98.10
32187;DHT22;18686;53.084;8.872;2023-02-22T15:20:56;14.20;98.70
32187;DHT22;18686;53.084;8.872;2023-02-22T15:23:27;14.00;99.20
32187;DHT22;18686;53.084;8.872;2023-02-22T15:25:59;13.80;99.80
32187;DHT22;18686;53.084;8.872;2023-02-22T15:28:29;13.60;99.90
32187;DHT22;18686;53.084;8.872;2023-02-22T15:31:21;13.50;99.90
32187;DHT22;18686;53.084;8.872;2023-02-22T15:33:51;13.40;99.90
32187;DHT22;18686;53.084;8.872;2023-02-22T15:36:24;13.30;99.90
32187;DHT22;18686;53.084;8.872;2023-02-22T15:38:53;13.20;99.90
32187;DHT22;18686;53.084;8.872;2023-02-22T15:41:28;13.20;99.90
32187;DHT22;18686;53.084;8.872;2023-02-22T15:44:00;13.20;99.90
32187;DHT22;18686;53.084;8.872;2023-02-22T15:46:40;13.00;99.90
32187;DHT22;18686;53.084;8.872;2023-02-22T15:49:20;12.90;99.90
32187;DHT22;18686;53.084;8.872;2023-02-22T15:52:04;12.80;99.90
32187;DHT22;18686;53.084;8.872;2023-02-22T15:54:39;12.70;99.90
32187;DHT22;18686;53.084;8.872;2023-02-22T15:57:08;12.60;99.90
32187;DHT22;18686;53.084;8.872;2023-02-22T15:59:43;12.50;99.90
32187;DHT22;18686;53.084;8.872;2023-02-22T16:02:30;12.40;99.90
32187;DHT22;18686;53.084;8.872;2023-02-22T16:05:03;12.30;99.90
32187;DHT22;18686;53.084;8.872;2023-02-22T16:07:35;12.20;99.90
32187;DHT22;18686;53.084;8.872;2023-02-22T16:10:07;12.20;99.90
32187;DHT22;18686;53.084;8.872;2023-02-22T16:12:35;12.20;99.90
32187;DHT22;18686;53.084;8.872;2023-02-22T16:15:14;12.00;99.90
32187;DHT22;18686;53.084;8.872;2023-02-22T16:17:44;11.90;99.90
32187;DHT22;18686;53.084;8.872;2023-02-22T16:20:33;11.80;99.90
32187;DHT22;18686;53.084;8.872;2023-02-22T16:23:23;11.70;99.90
32187;DHT22;18686;53.084;8.872;2023-02-22T16:26:03;11.60;99.90
32187;DHT22;18686;53.084;8.872;2023-02-22T16:28:32;11.60;99.90
32187;DHT22;18686;53.084;8.872;2023-02-22T16:31:03;11.60;99.90